sensor_id;sensor_type;location;lat;lon;timestamp;pressure;altitude;pressure_sealevel;temperature;humidity
66887;BME280;67239;51.680;5.976;2023-03-22T00:01:22;100889.34;;;8.99;86.40
66887;BME280;67239;51.680;5.976;2023-03-22T00:03:50;100886.81;;;8.94;86.39
66887;BME280;67239;51.680;5.976;2023-03-22T00:06:19;100885.19;;;8.90;86.47
66887;BME280;67239;51.680;5.976;2023-03-22T00:08:48;100893.09;;;8.89;86.67
66887;BME280;67239;51.680;5.976;2023-03-22T00:11:18;100885.34;;;8.82;86.84
66887;BME280;67239;51.680;5.976;2023-03-22T00:13:46;100883.63;;;8.81;87.08
66887;BME280;67239;51.680;5.976;2023-03-22T00:16:14;100878.34;;;8.81;87.17
66887;BME280;67239;51.680;5.976;2023-03-22T00:18:41;100881.84;;;8.82;87.43
66887;BME280;67239;51.680;5.976;2023-03-22T00:21:13;100881.00;;;8.81;87.25
66887;BME280;67239;51.680;5.976;2023-03-22T00:23:41;100873.09;;;8.81;87.39
66887;BME280;67239;51.680;5.976;2023-03-22T00:26:11;100876.59;;;8.82;87.54
66887;BME280;67239;51.680;5.976;2023-03-22T00:28:39;100870.53;;;8.80;87.33
66887;BME280;67239;51.680;5.976;2023-03-22T00:31:08;100864.38;;;8.79;87.53
66887;BME280;67239;51.680;5.976;2023-03-22T00:33:36;100864.44;;;8.78;87.37
66887;BME280;67239;51.680;5.976;2023-03-22T00:36:06;100858.28;;;8.77;87.40
66887;BME280;67239;51.680;5.976;2023-03-22T00:38:36;100854.00;;;8.73;87.29
66887;BME280;67239;51.680;5.976;2023-03-22T00:43:40;100852.41;;;8.66;87.27
66887;BME280;67239;51.680;5.976;2023-03-22T00:46:09;100845.44;;;8.63;87.24
66887;BME280;67239;51.680;5.976;2023-03-22T00:48:37;100835.88;;;8.61;87.50
66887;BME280;67239;51.680;5.976;2023-03-22T00:51:05;100841.19;;;8.58;87.55
66887;BME280;67239;51.680;5.976;2023-03-22T00:53:35;100836.03;;;8.54;87.46
66887;BME280;67239;51.680;5.976;2023-03-22T00:56:04;100827.31;;;8.52;87.34
66887;BME280;67239;51.680;5.976;2023-03-22T00:58:41;100823.91;;;8.49;87.39
66887;BME280;67239;51.680;5.976;2023-03-22T01:01:09;100822.13;;;8.46;87.56
66887;BME280;67239;51.680;5.976;2023-03-22T01:03:42;100810.84;;;8.43;87.55
66887;BME280;67239;51.680;5.976;2023-03-22T01:06:13;100806.56;;;8.38;87.54
66887;BME280;67239;51.680;5.976;2023-03-22T01:08:40;100810.09;;;8.36;88.10
66887;BME280;67239;51.680;5.976;2023-03-22T01:11:08;100803.19;;;8.32;87.89
66887;BME280;67239;51.680;5.976;2023-03-22T01:13:35;100810.19;;;8.31;88.03
66887;BME280;67239;51.680;5.976;2023-03-22T01:16:04;100805.84;;;8.30;88.24
66887;BME280;67239;51.680;5.976;2023-03-22T01:18:33;100800.59;;;8.30;88.45
66887;BME280;67239;51.680;5.976;2023-03-22T01:21:01;100791.03;;;8.28;88.52
66887;BME280;67239;51.680;5.976;2023-03-22T01:23:29;100787.53;;;8.27;88.55
66887;BME280;67239;51.680;5.976;2023-03-22T01:25:57;100787.56;;;8.26;88.75
66887;BME280;67239;51.680;5.976;2023-03-22T01:28:25;100791.06;;;8.26;88.75
66887;BME280;67239;51.680;5.976;2023-03-22T01:30:53;100790.16;;;8.27;89.07
66887;BME280;67239;51.680;5.976;2023-03-22T01:33:21;100784.91;;;8.27;89.10
66887;BME280;67239;51.680;5.976;2023-03-22T01:35:50;100777.88;;;8.28;89.17
66887;BME280;67239;51.680;5.976;2023-03-22T01:38:18;100771.75;;;8.29;89.27
66887;BME280;67239;51.680;5.976;2023-03-22T01:40:51;100768.22;;;8.30;89.54
66887;BME280;67239;51.680;5.976;2023-03-22T01:43:19;100762.06;;;8.31;89.88
66887;BME280;67239;51.680;5.976;2023-03-22T01:45:50;100749.78;;;8.33;90.45
66887;BME280;67239;51.680;5.976;2023-03-22T01:48:32;100745.38;;;8.33;90.60
66887;BME280;67239;51.680;5.976;2023-03-22T01:51:07;100730.50;;;8.34;90.61
66887;BME280;67239;51.680;5.976;2023-03-22T01:53:58;100735.69;;;8.35;90.71
66887;BME280;67239;51.680;5.976;2023-03-22T01:56:33;100723.41;;;8.37;90.89
66887;BME280;67239;51.680;5.976;2023-03-22T01:59:05;100725.97;;;8.39;90.94
66887;BME280;67239;51.680;5.976;2023-03-22T02:01:51;100725.94;;;8.40;91.32
66887;BME280;67239;51.680;5.976;2023-03-22T02:04:20;100717.13;;;8.43;91.44
66887;BME280;67239;51.680;5.976;2023-03-22T02:06:52;100717.00;;;8.49;91.70
66887;BME280;67239;51.680;5.976;2023-03-22T02:09:23;100712.47;;;8.56;92.35
66887;BME280;67239;51.680;5.976;2023-03-22T02:12:01;100700.88;;;8.65;92.57
66887;BME280;67239;51.680;5.976;2023-03-22T02:15:23;100698.03;;;8.74;92.70
66887;BME280;67239;51.680;5.976;2023-03-22T02:21:17;100693.25;;;8.90;92.45
66887;BME280;67239;51.680;5.976;2023-03-22T02:29:50;100682.19;;;9.10;92.67
66887;BME280;67239;51.680;5.976;2023-03-22T02:35:20;100674.06;;;9.20;92.40
66887;BME280;67239;51.680;5.976;2023-03-22T02:38:18;100668.66;;;9.26;92.38
66887;BME280;67239;51.680;5.976;2023-03-22T02:41:21;100672.00;;;9.31;92.35
66887;BME280;67239;51.680;5.976;2023-03-22T02:44:03;100665.84;;;9.32;91.88
66887;BME280;67239;51.680;5.976;2023-03-22T02:46:52;100670.16;;;9.35;92.04
66887;BME280;67239;51.680;5.976;2023-03-22T02:49:57;100674.50;;;9.36;91.90
66887;BME280;67239;51.680;5.976;2023-03-22T02:52:45;100666.56;;;9.37;91.89
66887;BME280;67239;51.680;5.976;2023-03-22T02:55:30;100672.66;;;9.39;91.62
66887;BME280;67239;51.680;5.976;2023-03-22T02:58:20;100666.47;;;9.40;91.75
66887;BME280;67239;51.680;5.976;2023-03-22T03:00:53;100667.38;;;9.39;91.44
66887;BME280;67239;51.680;5.976;2023-03-22T03:03:26;100668.28;;;9.40;91.36
66887;BME280;67239;51.680;5.976;2023-03-22T03:05:59;100664.81;;;9.38;91.27
66887;BME280;67239;51.680;5.976;2023-03-22T03:08:35;100667.47;;;9.36;91.04
66887;BME280;67239;51.680;5.976;2023-03-22T03:11:04;100665.75;;;9.35;91.35
66887;BME280;67239;51.680;5.976;2023-03-22T03:13:31;100654.31;;;9.36;91.36
66887;BME280;67239;51.680;5.976;2023-03-22T03:15:59;100659.56;;;9.36;91.27
66887;BME280;67239;51.680;5.976;2023-03-22T03:18:44;100647.28;;;9.37;91.21
66887;BME280;67239;51.680;5.976;2023-03-22T03:24:22;100654.22;;;9.41;91.53
66887;BME280;67239;51.680;5.976;2023-03-22T03:27:21;100649.84;;;9.40;91.53
66887;BME280;67239;51.680;5.976;2023-03-22T03:30:15;100643.56;;;9.45;91.51
66887;BME280;67239;51.680;5.976;2023-03-22T03:32:53;100640.88;;;9.47;91.42
66887;BME280;67239;51.680;5.976;2023-03-22T03:35:31;100646.94;;;9.49;91.14
66887;BME280;67239;51.680;5.976;2023-03-22T03:38:08;100638.19;;;9.48;91.06
66887;BME280;67239;51.680;5.976;2023-03-22T03:40:41;100639.97;;;9.48;90.93
66887;BME280;67239;51.680;5.976;2023-03-22T03:43:14;100645.22;;;9.48;90.75
66887;BME280;67239;51.680;5.976;2023-03-22T03:45:42;100640.88;;;9.47;90.71
66887;BME280;67239;51.680;5.976;2023-03-22T03:48:14;100638.22;;;9.47;90.87
66887;BME280;67239;51.680;5.976;2023-03-22T03:50:46;100638.28;;;9.45;90.54
66887;BME280;67239;51.680;5.976;2023-03-22T03:53:18;100632.16;;;9.45;90.76
66887;BME280;67239;51.680;5.976;2023-03-22T03:55:45;100636.50;;;9.46;90.69
66887;BME280;67239;51.680;5.976;2023-03-22T03:58:13;100630.41;;;9.45;90.84
66887;BME280;67239;51.680;5.976;2023-03-22T04:00:44;100634.72;;;9.46;90.83
66887;BME280;67239;51.680;5.976;2023-03-22T04:03:31;100632.09;;;9.46;90.66
66887;BME280;67239;51.680;5.976;2023-03-22T04:06:20;100639.06;;;9.47;90.64
66887;BME280;67239;51.680;5.976;2023-03-22T04:08:53;100640.81;;;9.48;90.53
66887;BME280;67239;51.680;5.976;2023-03-22T04:11:26;100643.44;;;9.48;90.24
66887;BME280;67239;51.680;5.976;2023-03-22T04:13:58;100643.50;;;9.47;90.21
66887;BME280;67239;51.680;5.976;2023-03-22T04:16:25;100640.03;;;9.45;90.07
66887;BME280;67239;51.680;5.976;2023-03-22T04:18:52;100637.50;;;9.42;90.21
66887;BME280;67239;51.680;5.976;2023-03-22T04:21:19;100643.69;;;9.41;90.13
66887;BME280;67239;51.680;5.976;2023-03-22T04:23:59;100640.25;;;9.37;89.91
66887;BME280;67239;51.680;5.976;2023-03-22T04:26:30;100645.63;;;9.34;90.01
66887;BME280;67239;51.680;5.976;2023-03-22T04:29:09;100638.66;;;9.31;89.86
66887;BME280;67239;51.680;5.976;2023-03-22T04:31:41;100624.72;;;9.28;90.03
66887;BME280;67239;51.680;5.976;2023-03-22T04:34:25;100616.97;;;9.23;90.02
66887;BME280;67239;51.680;5.976;2023-03-22T04:36:59;100616.25;;;9.18;90.00
66887;BME280;67239;51.680;5.976;2023-03-22T04:39:57;100608.44;;;9.15;89.97
66887;BME280;67239;51.680;5.976;2023-03-22T04:42:45;100610.28;;;9.11;90.00
66887;BME280;67239;51.680;5.976;2023-03-22T04:45:24;100620.00;;;9.09;90.09
66887;BME280;67239;51.680;5.976;2023-03-22T04:48:00;100611.31;;;9.06;90.36
66887;BME280;67239;51.680;5.976;2023-03-22T04:50:28;100614.03;;;9.02;90.00
66887;BME280;67239;51.680;5.976;2023-03-22T04:52:59;100608.88;;;8.99;90.21
66887;BME280;67239;51.680;5.976;2023-03-22T04:55:26;100607.16;;;8.98;90.20
66887;BME280;67239;51.680;5.976;2023-03-22T04:57:53;100612.44;;;8.97;90.36
66887;BME280;67239;51.680;5.976;2023-03-22T05:00:22;100605.44;;;8.97;90.54
66887;BME280;67239;51.680;5.976;2023-03-22T05:02:50;100603.69;;;8.96;90.74
66887;BME280;67239;51.680;5.976;2023-03-22T05:05:27;100607.28;;;8.94;90.40
66887;BME280;67239;51.680;5.976;2023-03-22T05:07:54;100602.94;;;8.91;90.45
66887;BME280;67239;51.680;5.976;2023-03-22T05:10:23;100609.16;;;8.89;90.69
66887;BME280;67239;51.680;5.976;2023-03-22T05:12:50;100601.34;;;8.85;90.73
66887;BME280;67239;51.680;5.976;2023-03-22T05:15:27;100596.13;;;8.84;90.66
66887;BME280;67239;51.680;5.976;2023-03-22T05:17:54;100606.66;;;8.84;90.87
66887;BME280;67239;51.680;5.976;2023-03-22T05:20:23;100607.56;;;8.83;90.88
66887;BME280;67239;51.680;5.976;2023-03-22T05:23:03;100605.81;;;8.83;90.88
66887;BME280;67239;51.680;5.976;2023-03-22T05:25:31;100611.00;;;8.85;91.12
66887;BME280;67239;51.680;5.976;2023-03-22T05:27:59;100610.06;;;8.88;91.02
66887;BME280;67239;51.680;5.976;2023-03-22T05:30:41;100608.19;;;8.91;90.94
66887;BME280;67239;51.680;5.976;2023-03-22T05:33:20;100609.03;;;8.93;90.87
66887;BME280;67239;51.680;5.976;2023-03-22T05:35:52;100600.16;;;8.97;91.03
66887;BME280;67239;51.680;5.976;2023-03-22T05:38:20;100602.63;;;9.04;90.81
66887;BME280;67239;51.680;5.976;2023-03-22T05:40:53;100601.63;;;9.08;90.93
66887;BME280;67239;51.680;5.976;2023-03-22T05:43:20;100601.53;;;9.11;90.69
66887;BME280;67239;51.680;5.976;2023-03-22T05:45:49;100591.81;;;9.14;90.68
66887;BME280;67239;51.680;5.976;2023-03-22T05:48:31;100599.38;;;9.25;90.54
66887;BME280;67239;51.680;5.976;2023-03-22T05:50:59;100599.03;;;9.38;90.70
66887;BME280;67239;51.680;5.976;2023-03-22T05:53:29;100603.13;;;9.48;90.29
66887;BME280;67239;51.680;5.976;2023-03-22T05:56:14;100602.94;;;9.54;90.16
66887;BME280;67239;51.680;5.976;2023-03-22T05:58:44;100597.44;;;9.62;89.89
66887;BME280;67239;51.680;5.976;2023-03-22T06:01:15;100594.59;;;9.70;89.70
66887;BME280;67239;51.680;5.976;2023-03-22T06:03:42;100596.88;;;9.81;89.56
66887;BME280;67239;51.680;5.976;2023-03-22T06:06:20;100597.47;;;9.90;89.07
66887;BME280;67239;51.680;5.976;2023-03-22T06:08:58;100590.19;;;9.97;88.13
66887;BME280;67239;51.680;5.976;2023-03-22T06:11:41;100597.09;;;10.01;87.53
66887;BME280;67239;51.680;5.976;2023-03-22T06:14:08;100590.84;;;10.05;87.36
66887;BME280;67239;51.680;5.976;2023-03-22T06:16:49;100588.09;;;10.08;87.17
66887;BME280;67239;51.680;5.976;2023-03-22T06:19:17;100588.06;;;10.10;86.88
66887;BME280;67239;51.680;5.976;2023-03-22T06:21:44;100581.91;;;10.09;86.39
66887;BME280;67239;51.680;5.976;2023-03-22T06:24:13;100592.44;;;10.09;86.37
66887;BME280;67239;51.680;5.976;2023-03-22T06:26:41;100597.72;;;10.09;86.15
66887;BME280;67239;51.680;5.976;2023-03-22T06:29:08;100598.53;;;10.12;86.06
66887;BME280;67239;51.680;5.976;2023-03-22T06:31:35;100598.53;;;10.12;85.92
66887;BME280;67239;51.680;5.976;2023-03-22T06:34:04;100591.50;;;10.12;86.06
66887;BME280;67239;51.680;5.976;2023-03-22T06:36:37;100592.31;;;10.14;85.94
66887;BME280;67239;51.680;5.976;2023-03-22T06:39:08;100587.78;;;10.18;85.71
66887;BME280;67239;51.680;5.976;2023-03-22T06:41:35;100592.78;;;10.27;85.52
66887;BME280;67239;51.680;5.976;2023-03-22T06:44:02;100583.69;;;10.36;85.09
66887;BME280;67239;51.680;5.976;2023-03-22T06:47:02;100578.91;;;10.49;84.95
66887;BME280;67239;51.680;5.976;2023-03-22T06:49:56;100584.56;;;10.63;84.57
66887;BME280;67239;51.680;5.976;2023-03-22T06:52:35;100581.59;;;10.72;84.10
66887;BME280;67239;51.680;5.976;2023-03-22T06:55:07;100576.06;;;10.80;83.90
66887;BME280;67239;51.680;5.976;2023-03-22T06:57:34;100578.66;;;10.82;83.61
66887;BME280;67239;51.680;5.976;2023-03-22T07:00:02;100591.91;;;10.80;83.37
66887;BME280;67239;51.680;5.976;2023-03-22T07:02:31;100586.78;;;10.76;83.05
66887;BME280;67239;51.680;5.976;2023-03-22T07:05:19;100581.69;;;10.69;83.03
66887;BME280;67239;51.680;5.976;2023-03-22T07:07:46;100582.69;;;10.67;83.21
66887;BME280;67239;51.680;5.976;2023-03-22T07:10:13;100581.03;;;10.64;83.54
66887;BME280;67239;51.680;5.976;2023-03-22T07:12:40;100583.66;;;10.64;84.04
66887;BME280;67239;51.680;5.976;2023-03-22T07:15:12;100585.22;;;10.70;84.00
66887;BME280;67239;51.680;5.976;2023-03-22T07:17:51;100590.91;;;10.83;83.71
66887;BME280;67239;51.680;5.976;2023-03-22T07:20:18;100583.38;;;10.97;83.69
66887;BME280;67239;51.680;5.976;2023-03-22T07:22:48;100589.00;;;11.12;83.59
66887;BME280;67239;51.680;5.976;2023-03-22T07:25:19;100596.41;;;11.26;83.38
66887;BME280;67239;51.680;5.976;2023-03-22T07:27:50;100598.31;;;11.46;83.07
66887;BME280;67239;51.680;5.976;2023-03-22T07:30:20;100581.75;;;11.64;82.50
66887;BME280;67239;51.680;5.976;2023-03-22T07:32:47;100587.41;;;11.77;81.71
66887;BME280;67239;51.680;5.976;2023-03-22T07:35:14;100591.50;;;11.86;81.29
66887;BME280;67239;51.680;5.976;2023-03-22T07:37:43;100583.50;;;11.88;80.90
66887;BME280;67239;51.680;5.976;2023-03-22T07:40:20;100580.63;;;11.94;80.00
66887;BME280;67239;51.680;5.976;2023-03-22T07:42:49;100577.81;;;11.99;80.02
66887;BME280;67239;51.680;5.976;2023-03-22T07:45:22;100578.66;;;11.99;79.56
66887;BME280;67239;51.680;5.976;2023-03-22T07:48:07;100580.47;;;11.99;79.39
66887;BME280;67239;51.680;5.976;2023-03-22T07:51:02;100583.19;;;11.95;79.24
66887;BME280;67239;51.680;5.976;2023-03-22T07:53:30;100583.19;;;11.95;78.95
66887;BME280;67239;51.680;5.976;2023-03-22T07:55:57;100587.56;;;11.96;78.96
66887;BME280;67239;51.680;5.976;2023-03-22T07:58:24;100592.75;;;12.00;78.31
66887;BME280;67239;51.680;5.976;2023-03-22T08:00:51;100587.41;;;12.01;78.23
66887;BME280;67239;51.680;5.976;2023-03-22T08:03:37;100597.84;;;12.04;78.19
66887;BME280;67239;51.680;5.976;2023-03-22T08:06:19;100593.13;;;12.13;77.61
66887;BME280;67239;51.680;5.976;2023-03-22T08:08:47;100592.03;;;12.17;77.64
66887;BME280;67239;51.680;5.976;2023-03-22T08:11:14;100595.19;;;12.26;77.37
66887;BME280;67239;51.680;5.976;2023-03-22T08:13:41;100586.88;;;12.36;77.53
66887;BME280;67239;51.680;5.976;2023-03-22T08:16:09;100580.19;;;12.48;77.25
66887;BME280;67239;51.680;5.976;2023-03-22T08:18:37;100577.97;;;12.59;76.96
66887;BME280;67239;51.680;5.976;2023-03-22T08:21:05;100578.13;;;12.77;76.24
66887;BME280;67239;51.680;5.976;2023-03-22T08:23:34;100577.50;;;12.91;75.75
66887;BME280;67239;51.680;5.976;2023-03-22T08:26:09;100583.31;;;12.99;75.73
66887;BME280;67239;51.680;5.976;2023-03-22T08:28:36;100586.88;;;12.98;75.34
66887;BME280;67239;51.680;5.976;2023-03-22T08:31:15;100594.59;;;13.02;75.20
66887;BME280;67239;51.680;5.976;2023-03-22T08:33:45;100600.09;;;12.98;74.67
66887;BME280;67239;51.680;5.976;2023-03-22T08:36:16;100598.66;;;12.91;74.31
66887;BME280;67239;51.680;5.976;2023-03-22T08:38:52;100604.16;;;12.86;73.76
66887;BME280;67239;51.680;5.976;2023-03-22T08:41:29;100604.88;;;12.89;73.92
66887;BME280;67239;51.680;5.976;2023-03-22T08:43:56;100601.88;;;12.97;72.75
66887;BME280;67239;51.680;5.976;2023-03-22T08:46:24;100595.19;;;13.09;73.27
66887;BME280;67239;51.680;5.976;2023-03-22T08:48:51;100598.84;;;13.26;72.86
66887;BME280;67239;51.680;5.976;2023-03-22T08:51:25;100587.94;;;13.33;71.96
66887;BME280;67239;51.680;5.976;2023-03-22T08:54:02;100591.22;;;13.39;72.62
66887;BME280;67239;51.680;5.976;2023-03-22T08:56:48;100579.47;;;13.46;72.18
66887;BME280;67239;51.680;5.976;2023-03-22T08:59:30;100579.88;;;13.56;71.65
66887;BME280;67239;51.680;5.976;2023-03-22T09:02:14;100581.94;;;13.68;71.60
66887;BME280;67239;51.680;5.976;2023-03-22T09:04:42;100575.97;;;13.82;69.82
66887;BME280;67239;51.680;5.976;2023-03-22T09:07:09;100576.41;;;13.92;69.71
66887;BME280;67239;51.680;5.976;2023-03-22T09:09:37;100569.88;;;13.99;69.62
66887;BME280;67239;51.680;5.976;2023-03-22T09:12:04;100566.31;;;14.18;68.67
66887;BME280;67239;51.680;5.976;2023-03-22T09:14:34;100559.53;;;14.29;68.45
66887;BME280;67239;51.680;5.976;2023-03-22T09:17:03;100568.91;;;14.37;67.32
66887;BME280;67239;51.680;5.976;2023-03-22T09:19:31;100565.00;;;14.44;67.65
66887;BME280;67239;51.680;5.976;2023-03-22T09:21:58;100559.22;;;14.53;67.18
66887;BME280;67239;51.680;5.976;2023-03-22T09:24:33;100558.97;;;14.58;66.64
66887;BME280;67239;51.680;5.976;2023-03-22T09:27:02;100567.72;;;14.60;65.88
66887;BME280;67239;51.680;5.976;2023-03-22T09:29:30;100562.44;;;14.60;65.48
66887;BME280;67239;51.680;5.976;2023-03-22T09:32:01;100545.47;;;14.63;65.93
66887;BME280;67239;51.680;5.976;2023-03-22T09:34:32;100547.88;;;14.69;65.54
66887;BME280;67239;51.680;5.976;2023-03-22T09:36:59;100539.66;;;14.73;65.77
66887;BME280;67239;51.680;5.976;2023-03-22T09:39:38;100546.25;;;14.82;65.85
66887;BME280;67239;51.680;5.976;2023-03-22T09:42:32;100550.16;;;14.93;63.75
66887;BME280;67239;51.680;5.976;2023-03-22T09:45:12;100567.72;;;14.95;62.87
66887;BME280;67239;51.680;5.976;2023-03-22T09:47:45;100546.50;;;14.95;62.86
66887;BME280;67239;51.680;5.976;2023-03-22T09:50:25;100552.50;;;14.99;63.22
66887;BME280;67239;51.680;5.976;2023-03-22T09:52:57;100553.25;;;15.01;63.08
66887;BME280;67239;51.680;5.976;2023-03-22T09:58:52;100559.03;;;14.91;62.13
66887;BME280;67239;51.680;5.976;2023-03-22T10:01:41;100547.75;;;14.88;62.59
66887;BME280;67239;51.680;5.976;2023-03-22T10:07:04;100550.44;;;14.70;62.66
66887;BME280;67239;51.680;5.976;2023-03-22T10:12:30;100551.97;;;14.39;62.96
66887;BME280;67239;51.680;5.976;2023-03-22T10:15:13;100548.00;;;14.31;63.37
66887;BME280;67239;51.680;5.976;2023-03-22T10:17:52;100546.34;;;14.28;63.58
66887;BME280;67239;51.680;5.976;2023-03-22T10:20:41;100545.88;;;14.20;63.25
66887;BME280;67239;51.680;5.976;2023-03-22T10:23:17;100547.84;;;14.16;63.75
66887;BME280;67239;51.680;5.976;2023-03-22T10:25:49;100549.63;;;14.16;62.95
66887;BME280;67239;51.680;5.976;2023-03-22T10:28:24;100535.53;;;14.15;63.11
66887;BME280;67239;51.680;5.976;2023-03-22T10:30:56;100546.97;;;14.16;63.84
66887;BME280;67239;51.680;5.976;2023-03-22T10:36:18;100542.22;;;14.05;63.77
66887;BME280;67239;51.680;5.976;2023-03-22T10:38:53;100536.25;;;14.00;63.73
66887;BME280;67239;51.680;5.976;2023-03-22T10:41:24;100536.72;;;13.90;63.79
66887;BME280;67239;51.680;5.976;2023-03-22T10:43:56;100540.84;;;13.78;64.44
66887;BME280;67239;51.680;5.976;2023-03-22T10:46:32;100545.56;;;13.72;64.35
66887;BME280;67239;51.680;5.976;2023-03-22T10:49:06;100543.50;;;13.59;65.01
66887;BME280;67239;51.680;5.976;2023-03-22T10:51:44;100548.19;;;13.54;65.56
66887;BME280;67239;51.680;5.976;2023-03-22T10:54:17;100553.03;;;13.44;65.96
66887;BME280;67239;51.680;5.976;2023-03-22T10:56:47;100561.25;;;13.38;66.24
66887;BME280;67239;51.680;5.976;2023-03-22T10:59:46;100566.88;;;13.30;66.55
66887;BME280;67239;51.680;5.976;2023-03-22T11:02:29;100559.38;;;13.21;66.94
66887;BME280;67239;51.680;5.976;2023-03-22T11:05:00;100566.00;;;13.11;67.32
66887;BME280;67239;51.680;5.976;2023-03-22T11:07:38;100565.59;;;13.01;67.76
66887;BME280;67239;51.680;5.976;2023-03-22T11:10:22;100561.34;;;12.97;68.39
66887;BME280;67239;51.680;5.976;2023-03-22T11:13:11;100566.75;;;12.94;68.52
66887;BME280;67239;51.680;5.976;2023-03-22T11:15:51;100563.19;;;12.95;69.29
66887;BME280;67239;51.680;5.976;2023-03-22T11:18:28;100564.72;;;13.00;69.73
66887;BME280;67239;51.680;5.976;2023-03-22T11:21:10;100565.97;;;13.12;69.90
66887;BME280;67239;51.680;5.976;2023-03-22T11:23:41;100559.31;;;13.23;69.53
66887;BME280;67239;51.680;5.976;2023-03-22T11:26:24;100553.81;;;13.27;68.99
66887;BME280;67239;51.680;5.976;2023-03-22T11:29:01;100570.47;;;13.29;68.72
66887;BME280;67239;51.680;5.976;2023-03-22T11:32:04;100558.09;;;13.30;68.15
66887;BME280;67239;51.680;5.976;2023-03-22T11:34:57;100563.38;;;13.30;68.87
66887;BME280;67239;51.680;5.976;2023-03-22T11:37:27;100565.69;;;13.38;69.27
66887;BME280;67239;51.680;5.976;2023-03-22T11:40:03;100556.97;;;13.55;69.44
66887;BME280;67239;51.680;5.976;2023-03-22T11:42:36;100568.94;;;13.63;69.04
66887;BME280;67239;51.680;5.976;2023-03-22T11:45:04;100561.81;;;13.64;68.87
66887;BME280;67239;51.680;5.976;2023-03-22T11:47:36;100555.91;;;13.59;69.05
66887;BME280;67239;51.680;5.976;2023-03-22T11:50:07;100563.97;;;13.56;69.28
66887;BME280;67239;51.680;5.976;2023-03-22T11:52:47;100559.78;;;13.51;69.44
66887;BME280;67239;51.680;5.976;2023-03-22T11:55:15;100560.94;;;13.46;69.63
66887;BME280;67239;51.680;5.976;2023-03-22T11:57:43;100560.22;;;13.42;69.03
66887;BME280;67239;51.680;5.976;2023-03-22T12:00:23;100561.06;;;13.43;69.74
66887;BME280;67239;51.680;5.976;2023-03-22T12:03:00;100556.41;;;13.48;69.61
66887;BME280;67239;51.680;5.976;2023-03-22T12:05:41;100561.84;;;13.45;69.65
66887;BME280;67239;51.680;5.976;2023-03-22T12:08:41;100558.31;;;13.44;69.74
66887;BME280;67239;51.680;5.976;2023-03-22T12:11:16;100561.13;;;13.41;69.79
66887;BME280;67239;51.680;5.976;2023-03-22T12:13:59;100563.72;;;13.43;69.68
66887;BME280;67239;51.680;5.976;2023-03-22T12:16:39;100561.13;;;13.41;69.91
66887;BME280;67239;51.680;5.976;2023-03-22T12:19:41;100562.25;;;13.35;70.14
66887;BME280;67239;51.680;5.976;2023-03-22T12:22:20;100557.16;;;13.31;70.56
66887;BME280;67239;51.680;5.976;2023-03-22T12:24:53;100545.56;;;13.33;70.65
66887;BME280;67239;51.680;5.976;2023-03-22T12:27:32;100540.81;;;13.42;70.63
66887;BME280;67239;51.680;5.976;2023-03-22T12:32:45;100537.81;;;13.49;70.86
66887;BME280;67239;51.680;5.976;2023-03-22T12:35:24;100525.91;;;13.58;70.95
66887;BME280;67239;51.680;5.976;2023-03-22T12:37:57;100525.63;;;13.64;70.17
66887;BME280;67239;51.680;5.976;2023-03-22T12:40:34;100529.81;;;13.69;69.95
66887;BME280;67239;51.680;5.976;2023-03-22T12:43:33;100527.25;;;13.67;69.48
66887;BME280;67239;51.680;5.976;2023-03-22T12:46:06;100537.13;;;13.63;69.48
66887;BME280;67239;51.680;5.976;2023-03-22T12:49:32;100535.66;;;13.58;69.72
66887;BME280;67239;51.680;5.976;2023-03-22T12:52:05;100530.66;;;13.51;69.48
66887;BME280;67239;51.680;5.976;2023-03-22T12:54:41;100532.72;;;13.45;69.32
66887;BME280;67239;51.680;5.976;2023-03-22T12:57:10;100530.22;;;13.42;69.48
66887;BME280;67239;51.680;5.976;2023-03-22T12:59:41;100538.25;;;13.40;69.68
66887;BME280;67239;51.680;5.976;2023-03-22T13:04:58;100532.97;;;13.39;69.97
66887;BME280;67239;51.680;5.976;2023-03-22T13:07:36;100535.59;;;13.40;69.72
66887;BME280;67239;51.680;5.976;2023-03-22T13:10:47;100538.25;;;13.39;69.73
66887;BME280;67239;51.680;5.976;2023-03-22T13:13:31;100535.78;;;13.35;69.34
66887;BME280;67239;51.680;5.976;2023-03-22T13:21:24;100538.06;;;13.24;69.74
66887;BME280;67239;51.680;5.976;2023-03-22T13:26:43;100531.41;;;13.15;69.57
66887;BME280;67239;51.680;5.976;2023-03-22T13:34:19;100518.16;;;13.15;70.05
66887;BME280;67239;51.680;5.976;2023-03-22T13:36:59;100514.66;;;13.15;70.21
66887;BME280;67239;51.680;5.976;2023-03-22T13:39:32;100524.13;;;13.20;70.30
66887;BME280;67239;51.680;5.976;2023-03-22T13:42:19;100527.38;;;13.26;70.06
66887;BME280;67239;51.680;5.976;2023-03-22T13:44:55;100522.09;;;13.26;70.27
66887;BME280;67239;51.680;5.976;2023-03-22T13:50:08;100532.47;;;13.30;69.56
66887;BME280;67239;51.680;5.976;2023-03-22T13:53:05;100528.31;;;13.25;69.62
66887;BME280;67239;51.680;5.976;2023-03-22T14:01:04;100519.09;;;13.14;70.55
66887;BME280;67239;51.680;5.976;2023-03-22T14:03:44;100519.03;;;13.16;70.13
66887;BME280;67239;51.680;5.976;2023-03-22T14:06:20;100520.97;;;13.12;70.47
66887;BME280;67239;51.680;5.976;2023-03-22T14:09:02;100525.25;;;13.15;70.45
66887;BME280;67239;51.680;5.976;2023-03-22T14:11:45;100524.47;;;13.13;70.39
66887;BME280;67239;51.680;5.976;2023-03-22T14:14:23;100517.66;;;13.07;70.28
66887;BME280;67239;51.680;5.976;2023-03-22T14:16:58;100528.25;;;13.07;70.51
66887;BME280;67239;51.680;5.976;2023-03-22T14:19:32;100516.81;;;13.07;70.56
66887;BME280;67239;51.680;5.976;2023-03-22T14:22:04;100518.59;;;13.06;70.50
66887;BME280;67239;51.680;5.976;2023-03-22T14:24:35;100518.66;;;13.04;70.58
66887;BME280;67239;51.680;5.976;2023-03-22T14:27:02;100512.50;;;13.04;70.53
66887;BME280;67239;51.680;5.976;2023-03-22T14:29:45;100509.81;;;13.05;70.58
66887;BME280;67239;51.680;5.976;2023-03-22T14:32:19;100508.13;;;13.03;70.73